Pagina principală
METAR-TAF:

METAR-TAF

Aeroporturi :

Normanton, Australia

Latitudine: 17-41-06S, longitudine: 141-04-12E, elevație: 22 m

Observații meteo curente

Raportul a fost făcut în urmă cu 43 de minute, la 02:00 UTC
Vânt 9 kt de la Nord, variabil între Nord-vest și Nord
Temperatură 34°C
Umiditate 50%
Presiune 1010 hPa
Vizibilitate de 10 km sau mai mult
Nori împrăștiați la o înălțime de 6300 picior
Nori fragmentați la o înălțime de 7200 picior

METAR: YNTN 020200Z AUTO 36009KT 310V010 9999 // SCT063 BKN072 34/22 Q1010

Ora: 12:43 (02:43 UTC)


TAF: lipsă

Observații și prognoze meteo pentru peste 4.000 de aeroporturi (rapoarte METAR și TAF).

Stațiile disponibile sunt reprezentate pe hartă prin puncte galbene și roșii.

Țineți indicatorul mouse-ului pe punctul dorit pentru a vedea denumirea stației.

Apoi, faceți clic pentru a vedea observațiile și prognozele meteorologice.

Pentru a schimba harta: Pentru mărire, faceți clic pe butoanele verzi cu cruce neagră; pentru micșorare, pe butonul verde cu o liniuță; pentru hărți învecinate, pe săgețile verzi.


METAR-TAF: